Weather at Eomgwangsan Heliport

Public forecast

Using degrees Celsius for public forecast. Weather courtesy of forecast.io.

Closest aviation weather report (METAR) to Eomgwangsan Heliport

Closest report is Gimhae International Airport, 4.7 nm (8.7 km) NW. Retrieved 2020/09/25 09:00 UTC (46 minutes ago):

RKPK 250900Z 01015KT 9999 FEW030 FEW080 SCT200 23/13 Q1010

Closest aviation forecast (TAF) to Eomgwangsan Heliport

Closest forecast is Gimhae International Airport, 4.7 nm (8.7 km) NW. Retrieved 2020/09/25 06:00 UTC (4 hours ago):

TAF RKPK 250500Z 2506/2612 03012KT 9999 BKN040 TN14/2521Z TX25/2606Z BECMG 2608/2609 03008KT